Winters Aire Park Airport

CFY4 · 艾伯塔, 加拿大

罗盘
风向 的 Winters Aire Park Airport 9/27
风: 2 kt, 1 beaufort


2 kt
改变
0 ft 2.000 4.000 6.000 8.000 10.000
Cloud Cloud
FEW 6.000
METAR CYYC 311000Z VRB02KT 15SM FEW060 M13/M16 A2976 RMK SC1 SLP151

METAR Winters Aire Park Airport - CFY4

Winters Aire Park Airport是,加拿大中的小机场。 该机场有2条跑道: 9/27 和 16/34. 该领域的国际民航组织标志是CFY4.

这份报告是针对2023年1月31日 03:00, 当地时间在Calgary International Airport进行的。

机场观察

可变方向的风很小或没有风。

可见度为15 mi。

有几云在6.000 ft的高度。 没有观察到天花板。

温度为-13 °C,阵风为-17 °C。 露点为-16 °C,相对湿度为78%。 海平面上的气压为29,76 inHg (QNH)。

白天

今天,太阳从08:12升起,在17:24降落。 这适用于Winters Aire Park Airport,世界夏令时可能有所不同。 当地时间与世界标准时间之间的时差为-7 小时。 当前,没有夏令时有效。

公司介绍

我们没有关于这个机场的公司信息。

体会

到Vliegles.nl去找飞行课程,跳伞和其他飞行体验。 浏览页面,了解Winters Aire Park Airport附近所有可用的活动。 你也可以使用搜索功能来寻找你所在地附近的特定飞行课程、跳伞或其他飞行体验。

跑道

Id 标题 侧风 逆风 侧风 %
9/27 090°-270° 2 kt 100 %
16/34 160°-340° 2 kt 34 %

逆风成分最大的方向会被突出显示,并用于横风计算。 这并不一定意味着这个方向在使用。

乌云

6.000 ft FEW 几云

温度 & 天气

温度 -13 °C
露点 -16 °C
相对湿度 78%
风寒 -17 °C
Kp-index 2 (0-9)

评论

SLP151海平面压力为29,98 inHg (29,98 inHg)
SC1

白天

日出
08:14 (4:09)
中午
12:49
日落
17:24

小工具

你想在你的网站上有一个关于Winters Aire Park Airport的当前航空天气(METAR)的小部件吗?

显示HTML代码

我们和第三方通过cookies跟踪您在我们网站上的互联网行为。如果你继续,我们认为你同意我们的饼干政策